sensor_id;sensor_type;location;lat;lon;timestamp;P1;durP1;ratioP1;P2;durP2;ratioP2
11743;SDS011;5929;51.906;7.674;2023-04-01T00:01:25;11.75;;;3.35;;
11743;SDS011;5929;51.906;7.674;2023-04-01T00:03:52;12.18;;;3.47;;
11743;SDS011;5929;51.906;7.674;2023-04-01T00:06:19;14.20;;;3.88;;
11743;SDS011;5929;51.906;7.674;2023-04-01T00:08:47;11.02;;;3.88;;
11743;SDS011;5929;51.906;7.674;2023-04-01T00:11:14;8.38;;;3.90;;
11743;SDS011;5929;51.906;7.674;2023-04-01T00:13:41;13.55;;;4.07;;
11743;SDS011;5929;51.906;7.674;2023-04-01T00:16:09;11.77;;;3.88;;
11743;SDS011;5929;51.906;7.674;2023-04-01T00:18:36;13.88;;;4.70;;
11743;SDS011;5929;51.906;7.674;2023-04-01T00:21:04;12.40;;;3.80;;
11743;SDS011;5929;51.906;7.674;2023-04-01T00:23:32;10.18;;;3.72;;
11743;SDS011;5929;51.906;7.674;2023-04-01T00:26:00;12.68;;;4.28;;
11743;SDS011;5929;51.906;7.674;2023-04-01T00:28:28;13.45;;;4.65;;
11743;SDS011;5929;51.906;7.674;2023-04-01T00:30:55;8.35;;;4.38;;
11743;SDS011;5929;51.906;7.674;2023-04-01T00:33:22;15.60;;;4.75;;
11743;SDS011;5929;51.906;7.674;2023-04-01T00:35:49;14.32;;;5.13;;
11743;SDS011;5929;51.906;7.674;2023-04-01T00:38:16;12.38;;;5.72;;
11743;SDS011;5929;51.906;7.674;2023-04-01T00:40:44;14.27;;;5.00;;
11743;SDS011;5929;51.906;7.674;2023-04-01T00:43:13;12.77;;;5.32;;
11743;SDS011;5929;51.906;7.674;2023-04-01T00:45:43;17.50;;;5.80;;
11743;SDS011;5929;51.906;7.674;2023-04-01T00:48:15;12.63;;;5.32;;
11743;SDS011;5929;51.906;7.674;2023-04-01T00:50:44;11.85;;;5.05;;
11743;SDS011;5929;51.906;7.674;2023-04-01T00:53:13;11.23;;;5.80;;
11743;SDS011;5929;51.906;7.674;2023-04-01T00:55:42;13.80;;;5.80;;
11743;SDS011;5929;51.906;7.674;2023-04-01T00:58:16;13.45;;;5.78;;
11743;SDS011;5929;51.906;7.674;2023-04-01T01:00:45;18.08;;;5.82;;
11743;SDS011;5929;51.906;7.674;2023-04-01T01:03:14;13.38;;;5.10;;
11743;SDS011;5929;51.906;7.674;2023-04-01T01:08:35;12.05;;;4.57;;
11743;SDS011;5929;51.906;7.674;2023-04-01T01:11:12;10.75;;;4.95;;
11743;SDS011;5929;51.906;7.674;2023-04-01T01:13:43;12.25;;;5.15;;
11743;SDS011;5929;51.906;7.674;2023-04-01T01:16:17;11.73;;;5.00;;
11743;SDS011;5929;51.906;7.674;2023-04-01T01:18:50;13.25;;;5.60;;
11743;SDS011;5929;51.906;7.674;2023-04-01T01:21:26;12.85;;;6.00;;
11743;SDS011;5929;51.906;7.674;2023-04-01T01:24:09;12.68;;;6.10;;
11743;SDS011;5929;51.906;7.674;2023-04-01T01:26:59;11.65;;;5.75;;
11743;SDS011;5929;51.906;7.674;2023-04-01T01:32:41;14.40;;;6.05;;
11743;SDS011;5929;51.906;7.674;2023-04-01T01:35:20;11.18;;;5.18;;
11743;SDS011;5929;51.906;7.674;2023-04-01T01:37:51;16.63;;;6.32;;
11743;SDS011;5929;51.906;7.674;2023-04-01T01:40:21;9.77;;;5.85;;
11743;SDS011;5929;51.906;7.674;2023-04-01T01:42:51;12.45;;;5.60;;
11743;SDS011;5929;51.906;7.674;2023-04-01T01:45:21;12.23;;;6.07;;
11743;SDS011;5929;51.906;7.674;2023-04-01T01:47:51;12.55;;;5.80;;
11743;SDS011;5929;51.906;7.674;2023-04-01T01:50:18;10.00;;;5.70;;
11743;SDS011;5929;51.906;7.674;2023-04-01T01:52:47;12.20;;;5.65;;
11743;SDS011;5929;51.906;7.674;2023-04-01T01:55:24;12.90;;;5.65;;
11743;SDS011;5929;51.906;7.674;2023-04-01T01:57:54;14.05;;;6.03;;
11743;SDS011;5929;51.906;7.674;2023-04-01T02:00:24;8.50;;;5.10;;
11743;SDS011;5929;51.906;7.674;2023-04-01T02:02:51;10.95;;;5.72;;
11743;SDS011;5929;51.906;7.674;2023-04-01T02:05:22;14.38;;;6.97;;
11743;SDS011;5929;51.906;7.674;2023-04-01T02:07:52;12.63;;;6.43;;
11743;SDS011;5929;51.906;7.674;2023-04-01T02:10:26;11.70;;;7.00;;
11743;SDS011;5929;51.906;7.674;2023-04-01T02:12:58;13.98;;;6.60;;
11743;SDS011;5929;51.906;7.674;2023-04-01T02:15:28;12.82;;;6.85;;
11743;SDS011;5929;51.906;7.674;2023-04-01T02:17:59;13.88;;;6.65;;
11743;SDS011;5929;51.906;7.674;2023-04-01T02:20:29;13.27;;;7.18;;
11743;SDS011;5929;51.906;7.674;2023-04-01T02:22:56;12.63;;;7.03;;
11743;SDS011;5929;51.906;7.674;2023-04-01T02:25:25;15.10;;;6.93;;
11743;SDS011;5929;51.906;7.674;2023-04-01T02:27:54;12.60;;;6.35;;
11743;SDS011;5929;51.906;7.674;2023-04-01T02:30:23;11.98;;;7.00;;
11743;SDS011;5929;51.906;7.674;2023-04-01T02:32:52;11.15;;;6.50;;
11743;SDS011;5929;51.906;7.674;2023-04-01T02:35:21;10.98;;;6.18;;
11743;SDS011;5929;51.906;7.674;2023-04-01T02:37:50;10.18;;;5.88;;
11743;SDS011;5929;51.906;7.674;2023-04-01T02:40:19;12.50;;;6.32;;
11743;SDS011;5929;51.906;7.674;2023-04-01T02:42:48;12.07;;;6.40;;
11743;SDS011;5929;51.906;7.674;2023-04-01T02:45:15;12.68;;;6.82;;
11743;SDS011;5929;51.906;7.674;2023-04-01T02:47:41;14.05;;;6.57;;
11743;SDS011;5929;51.906;7.674;2023-04-01T02:50:08;14.02;;;6.35;;
11743;SDS011;5929;51.906;7.674;2023-04-01T02:52:35;12.25;;;6.97;;
11743;SDS011;5929;51.906;7.674;2023-04-01T02:55:04;10.88;;;6.70;;
11743;SDS011;5929;51.906;7.674;2023-04-01T02:57:31;10.95;;;6.50;;
11743;SDS011;5929;51.906;7.674;2023-04-01T02:59:58;11.38;;;7.00;;
11743;SDS011;5929;51.906;7.674;2023-04-01T03:02:25;12.52;;;7.13;;
11743;SDS011;5929;51.906;7.674;2023-04-01T03:04:52;12.48;;;7.18;;
11743;SDS011;5929;51.906;7.674;2023-04-01T03:07:18;12.70;;;7.22;;
11743;SDS011;5929;51.906;7.674;2023-04-01T03:09:47;9.68;;;5.97;;
11743;SDS011;5929;51.906;7.674;2023-04-01T03:12:19;11.02;;;6.20;;
11743;SDS011;5929;51.906;7.674;2023-04-01T03:14:45;10.68;;;6.53;;
11743;SDS011;5929;51.906;7.674;2023-04-01T03:17:12;13.77;;;6.85;;
11743;SDS011;5929;51.906;7.674;2023-04-01T03:19:40;13.30;;;6.97;;
11743;SDS011;5929;51.906;7.674;2023-04-01T03:22:07;13.73;;;6.72;;
11743;SDS011;5929;51.906;7.674;2023-04-01T03:24:35;11.48;;;6.20;;
11743;SDS011;5929;51.906;7.674;2023-04-01T03:27:04;11.18;;;6.35;;
11743;SDS011;5929;51.906;7.674;2023-04-01T03:29:32;17.73;;;6.97;;
11743;SDS011;5929;51.906;7.674;2023-04-01T03:31:59;14.68;;;6.75;;
11743;SDS011;5929;51.906;7.674;2023-04-01T03:34:26;12.05;;;6.85;;
11743;SDS011;5929;51.906;7.674;2023-04-01T03:36:52;10.45;;;6.68;;
11743;SDS011;5929;51.906;7.674;2023-04-01T03:39:19;11.73;;;6.30;;
11743;SDS011;5929;51.906;7.674;2023-04-01T03:41:47;10.73;;;6.75;;
11743;SDS011;5929;51.906;7.674;2023-04-01T03:44:13;12.18;;;6.63;;
11743;SDS011;5929;51.906;7.674;2023-04-01T03:46:42;13.45;;;7.50;;
11743;SDS011;5929;51.906;7.674;2023-04-01T03:49:09;11.88;;;6.55;;
11743;SDS011;5929;51.906;7.674;2023-04-01T03:51:36;13.23;;;7.05;;
11743;SDS011;5929;51.906;7.674;2023-04-01T03:54:04;14.73;;;7.63;;
11743;SDS011;5929;51.906;7.674;2023-04-01T03:56:31;12.93;;;7.47;;
11743;SDS011;5929;51.906;7.674;2023-04-01T03:58:58;14.32;;;6.93;;
11743;SDS011;5929;51.906;7.674;2023-04-01T04:01:29;10.85;;;7.32;;
11743;SDS011;5929;51.906;7.674;2023-04-01T04:03:57;13.35;;;6.88;;
11743;SDS011;5929;51.906;7.674;2023-04-01T04:06:24;11.15;;;6.60;;
11743;SDS011;5929;51.906;7.674;2023-04-01T04:08:51;9.73;;;5.80;;
11743;SDS011;5929;51.906;7.674;2023-04-01T04:11:19;14.45;;;6.47;;
11743;SDS011;5929;51.906;7.674;2023-04-01T04:13:47;14.05;;;6.18;;
11743;SDS011;5929;51.906;7.674;2023-04-01T04:16:14;12.40;;;6.10;;
11743;SDS011;5929;51.906;7.674;2023-04-01T04:18:44;10.60;;;5.82;;
11743;SDS011;5929;51.906;7.674;2023-04-01T04:21:13;10.30;;;5.38;;
11743;SDS011;5929;51.906;7.674;2023-04-01T04:23:41;8.73;;;4.75;;
11743;SDS011;5929;51.906;7.674;2023-04-01T04:26:09;8.85;;;4.40;;
11743;SDS011;5929;51.906;7.674;2023-04-01T04:28:37;6.88;;;4.10;;
11743;SDS011;5929;51.906;7.674;2023-04-01T04:31:04;8.38;;;4.55;;
11743;SDS011;5929;51.906;7.674;2023-04-01T04:33:31;10.73;;;4.85;;
11743;SDS011;5929;51.906;7.674;2023-04-01T04:35:58;11.35;;;5.07;;
11743;SDS011;5929;51.906;7.674;2023-04-01T04:38:27;11.20;;;4.57;;
11743;SDS011;5929;51.906;7.674;2023-04-01T04:40:54;9.48;;;4.30;;
11743;SDS011;5929;51.906;7.674;2023-04-01T04:43:21;10.25;;;4.13;;
11743;SDS011;5929;51.906;7.674;2023-04-01T04:45:48;6.75;;;3.75;;
11743;SDS011;5929;51.906;7.674;2023-04-01T04:48:15;10.50;;;3.25;;
11743;SDS011;5929;51.906;7.674;2023-04-01T04:50:45;5.05;;;3.00;;
11743;SDS011;5929;51.906;7.674;2023-04-01T04:53:12;7.25;;;2.60;;
11743;SDS011;5929;51.906;7.674;2023-04-01T04:55:43;5.18;;;2.45;;
11743;SDS011;5929;51.906;7.674;2023-04-01T04:58:10;6.13;;;2.60;;
11743;SDS011;5929;51.906;7.674;2023-04-01T05:00:39;7.68;;;2.53;;
11743;SDS011;5929;51.906;7.674;2023-04-01T05:03:06;8.10;;;2.70;;
11743;SDS011;5929;51.906;7.674;2023-04-01T05:05:33;6.85;;;2.80;;
11743;SDS011;5929;51.906;7.674;2023-04-01T05:08:00;7.25;;;3.03;;
11743;SDS011;5929;51.906;7.674;2023-04-01T05:10:27;7.20;;;2.88;;
11743;SDS011;5929;51.906;7.674;2023-04-01T05:12:55;6.82;;;2.92;;
11743;SDS011;5929;51.906;7.674;2023-04-01T05:15:22;7.55;;;3.33;;
11743;SDS011;5929;51.906;7.674;2023-04-01T05:17:49;7.60;;;3.20;;
11743;SDS011;5929;51.906;7.674;2023-04-01T05:20:16;8.35;;;3.92;;
11743;SDS011;5929;51.906;7.674;2023-04-01T05:22:46;8.68;;;4.03;;
11743;SDS011;5929;51.906;7.674;2023-04-01T05:25:15;9.43;;;5.25;;
11743;SDS011;5929;51.906;7.674;2023-04-01T05:27:42;9.57;;;5.50;;
11743;SDS011;5929;51.906;7.674;2023-04-01T05:30:11;11.30;;;5.78;;
11743;SDS011;5929;51.906;7.674;2023-04-01T05:32:38;13.63;;;6.10;;
11743;SDS011;5929;51.906;7.674;2023-04-01T05:35:05;13.32;;;6.53;;
11743;SDS011;5929;51.906;7.674;2023-04-01T05:37:33;14.45;;;6.38;;
11743;SDS011;5929;51.906;7.674;2023-04-01T05:40:00;11.43;;;6.28;;
11743;SDS011;5929;51.906;7.674;2023-04-01T05:42:27;11.23;;;6.70;;
11743;SDS011;5929;51.906;7.674;2023-04-01T05:44:54;14.88;;;7.38;;
11743;SDS011;5929;51.906;7.674;2023-04-01T05:47:23;13.43;;;8.07;;
11743;SDS011;5929;51.906;7.674;2023-04-01T05:49:52;15.05;;;7.63;;
11743;SDS011;5929;51.906;7.674;2023-04-01T05:52:20;21.13;;;9.68;;
11743;SDS011;5929;51.906;7.674;2023-04-01T05:54:47;16.40;;;8.90;;
11743;SDS011;5929;51.906;7.674;2023-04-01T05:57:14;17.83;;;9.00;;
11743;SDS011;5929;51.906;7.674;2023-04-01T05:59:40;24.40;;;11.30;;
11743;SDS011;5929;51.906;7.674;2023-04-01T06:02:08;21.02;;;10.95;;
11743;SDS011;5929;51.906;7.674;2023-04-01T06:04:37;20.38;;;10.35;;
11743;SDS011;5929;51.906;7.674;2023-04-01T06:07:09;17.65;;;9.95;;
11743;SDS011;5929;51.906;7.674;2023-04-01T06:09:37;21.80;;;10.50;;
11743;SDS011;5929;51.906;7.674;2023-04-01T06:12:16;16.48;;;9.88;;
11743;SDS011;5929;51.906;7.674;2023-04-01T06:14:57;22.70;;;9.85;;
11743;SDS011;5929;51.906;7.674;2023-04-01T06:17:37;16.65;;;9.02;;
11743;SDS011;5929;51.906;7.674;2023-04-01T06:20:18;16.77;;;8.68;;
11743;SDS011;5929;51.906;7.674;2023-04-01T06:23:01;17.58;;;9.43;;
11743;SDS011;5929;51.906;7.674;2023-04-01T06:25:50;17.33;;;9.40;;
11743;SDS011;5929;51.906;7.674;2023-04-01T06:28:40;16.65;;;9.82;;
11743;SDS011;5929;51.906;7.674;2023-04-01T06:31:26;19.30;;;9.30;;
11743;SDS011;5929;51.906;7.674;2023-04-01T06:34:14;19.58;;;9.05;;
11743;SDS011;5929;51.906;7.674;2023-04-01T06:36:56;21.45;;;9.48;;
11743;SDS011;5929;51.906;7.674;2023-04-01T06:39:48;17.35;;;8.80;;
11743;SDS011;5929;51.906;7.674;2023-04-01T06:42:34;14.98;;;8.85;;
11743;SDS011;5929;51.906;7.674;2023-04-01T06:45:18;23.45;;;9.88;;
11743;SDS011;5929;51.906;7.674;2023-04-01T06:47:59;16.15;;;9.35;;
11743;SDS011;5929;51.906;7.674;2023-04-01T06:50:37;18.42;;;9.52;;
11743;SDS011;5929;51.906;7.674;2023-04-01T06:53:16;16.40;;;10.10;;
11743;SDS011;5929;51.906;7.674;2023-04-01T06:55:47;15.35;;;8.18;;
11743;SDS011;5929;51.906;7.674;2023-04-01T06:58:19;15.73;;;9.50;;
11743;SDS011;5929;51.906;7.674;2023-04-01T07:00:49;17.10;;;9.13;;
11743;SDS011;5929;51.906;7.674;2023-04-01T07:03:20;13.05;;;8.02;;
11743;SDS011;5929;51.906;7.674;2023-04-01T07:05:54;18.30;;;9.32;;
11743;SDS011;5929;51.906;7.674;2023-04-01T07:08:27;14.15;;;8.23;;
11743;SDS011;5929;51.906;7.674;2023-04-01T07:10:56;15.57;;;8.23;;
11743;SDS011;5929;51.906;7.674;2023-04-01T07:13:27;11.77;;;7.72;;
11743;SDS011;5929;51.906;7.674;2023-04-01T07:16:04;14.38;;;8.35;;
11743;SDS011;5929;51.906;7.674;2023-04-01T07:18:37;14.00;;;6.88;;
11743;SDS011;5929;51.906;7.674;2023-04-01T07:21:09;12.63;;;7.13;;
11743;SDS011;5929;51.906;7.674;2023-04-01T07:23:44;12.43;;;7.28;;
11743;SDS011;5929;51.906;7.674;2023-04-01T07:26:15;13.60;;;7.30;;
11743;SDS011;5929;51.906;7.674;2023-04-01T07:28:45;13.85;;;6.90;;
11743;SDS011;5929;51.906;7.674;2023-04-01T07:31:23;10.40;;;6.55;;
11743;SDS011;5929;51.906;7.674;2023-04-01T07:34:00;11.63;;;6.60;;
11743;SDS011;5929;51.906;7.674;2023-04-01T07:36:33;11.52;;;6.53;;
11743;SDS011;5929;51.906;7.674;2023-04-01T07:39:08;9.90;;;6.03;;
11743;SDS011;5929;51.906;7.674;2023-04-01T07:41:49;9.82;;;5.75;;
11743;SDS011;5929;51.906;7.674;2023-04-01T07:44:22;11.63;;;6.25;;
11743;SDS011;5929;51.906;7.674;2023-04-01T07:46:57;9.57;;;6.53;;
11743;SDS011;5929;51.906;7.674;2023-04-01T07:49:35;11.40;;;7.32;;
11743;SDS011;5929;51.906;7.674;2023-04-01T07:52:13;10.85;;;7.43;;
11743;SDS011;5929;51.906;7.674;2023-04-01T07:54:46;12.50;;;7.55;;
11743;SDS011;5929;51.906;7.674;2023-04-01T07:57:19;10.32;;;7.53;;
11743;SDS011;5929;51.906;7.674;2023-04-01T07:59:51;14.60;;;8.05;;
11743;SDS011;5929;51.906;7.674;2023-04-01T08:02:28;11.75;;;7.80;;
11743;SDS011;5929;51.906;7.674;2023-04-01T08:05:04;11.23;;;7.65;;
11743;SDS011;5929;51.906;7.674;2023-04-01T08:07:42;11.18;;;8.05;;
11743;SDS011;5929;51.906;7.674;2023-04-01T08:10:17;10.68;;;7.15;;
11743;SDS011;5929;51.906;7.674;2023-04-01T08:12:52;12.35;;;7.00;;
11743;SDS011;5929;51.906;7.674;2023-04-01T08:15:29;10.38;;;7.03;;
11743;SDS011;5929;51.906;7.674;2023-04-01T08:18:04;10.20;;;7.35;;
11743;SDS011;5929;51.906;7.674;2023-04-01T08:20:38;10.15;;;6.95;;
11743;SDS011;5929;51.906;7.674;2023-04-01T08:23:11;9.95;;;6.70;;
11743;SDS011;5929;51.906;7.674;2023-04-01T08:25:44;8.93;;;5.93;;
11743;SDS011;5929;51.906;7.674;2023-04-01T08:28:17;8.80;;;5.00;;
11743;SDS011;5929;51.906;7.674;2023-04-01T08:30:50;9.57;;;5.82;;
11743;SDS011;5929;51.906;7.674;2023-04-01T08:33:21;10.23;;;5.90;;
11743;SDS011;5929;51.906;7.674;2023-04-01T08:35:53;7.50;;;5.40;;
11743;SDS011;5929;51.906;7.674;2023-04-01T08:38:23;7.47;;;5.50;;
11743;SDS011;5929;51.906;7.674;2023-04-01T08:40:57;10.32;;;6.65;;
11743;SDS011;5929;51.906;7.674;2023-04-01T08:49:22;9.13;;;5.47;;
11743;SDS011;5929;51.906;7.674;2023-04-01T08:52:07;9.23;;;6.43;;
11743;SDS011;5929;51.906;7.674;2023-04-01T08:55:04;13.68;;;7.45;;
11743;SDS011;5929;51.906;7.674;2023-04-01T08:57:56;11.20;;;7.78;;
11743;SDS011;5929;51.906;7.674;2023-04-01T09:00:43;12.18;;;7.78;;
11743;SDS011;5929;51.906;7.674;2023-04-01T09:06:24;12.52;;;9.35;;
11743;SDS011;5929;51.906;7.674;2023-04-01T09:09:02;13.75;;;9.77;;
11743;SDS011;5929;51.906;7.674;2023-04-01T09:11:54;12.43;;;9.65;;
11743;SDS011;5929;51.906;7.674;2023-04-01T09:21:07;14.73;;;9.45;;
11743;SDS011;5929;51.906;7.674;2023-04-01T09:23:58;14.50;;;10.38;;
11743;SDS011;5929;51.906;7.674;2023-04-01T09:26:51;15.63;;;10.10;;
11743;SDS011;5929;51.906;7.674;2023-04-01T09:29:34;14.93;;;10.85;;
11743;SDS011;5929;51.906;7.674;2023-04-01T09:32:26;18.42;;;12.23;;
11743;SDS011;5929;51.906;7.674;2023-04-01T09:35:18;15.85;;;12.27;;
11743;SDS011;5929;51.906;7.674;2023-04-01T09:37:53;18.00;;;12.98;;
11743;SDS011;5929;51.906;7.674;2023-04-01T09:40:31;22.17;;;13.38;;
11743;SDS011;5929;51.906;7.674;2023-04-01T09:43:07;16.92;;;12.65;;
11743;SDS011;5929;51.906;7.674;2023-04-01T09:45:53;19.17;;;13.30;;
11743;SDS011;5929;51.906;7.674;2023-04-01T09:51:34;20.00;;;12.98;;
11743;SDS011;5929;51.906;7.674;2023-04-01T09:54:16;18.75;;;13.95;;
11743;SDS011;5929;51.906;7.674;2023-04-01T10:00:18;22.60;;;16.23;;
11743;SDS011;5929;51.906;7.674;2023-04-01T10:09:10;17.05;;;12.27;;
11743;SDS011;5929;51.906;7.674;2023-04-01T10:12:15;15.35;;;12.88;;
11743;SDS011;5929;51.906;7.674;2023-04-01T10:15:19;16.60;;;12.43;;
11743;SDS011;5929;51.906;7.674;2023-04-01T10:18:11;14.48;;;11.50;;
11743;SDS011;5929;51.906;7.674;2023-04-01T10:21:07;15.05;;;10.57;;
11743;SDS011;5929;51.906;7.674;2023-04-01T10:24:01;12.10;;;9.68;;
11743;SDS011;5929;51.906;7.674;2023-04-01T10:27:00;14.00;;;12.50;;
11743;SDS011;5929;51.906;7.674;2023-04-01T10:29:46;13.60;;;11.85;;
11743;SDS011;5929;51.906;7.674;2023-04-01T10:35:51;11.48;;;8.23;;
11743;SDS011;5929;51.906;7.674;2023-04-01T10:41:39;12.88;;;9.77;;
11743;SDS011;5929;51.906;7.674;2023-04-01T10:44:53;10.48;;;8.52;;
11743;SDS011;5929;51.906;7.674;2023-04-01T10:47:59;12.43;;;8.48;;
11743;SDS011;5929;51.906;7.674;2023-04-01T10:53:49;8.75;;;7.78;;
11743;SDS011;5929;51.906;7.674;2023-04-01T10:56:44;12.32;;;8.57;;
11743;SDS011;5929;51.906;7.674;2023-04-01T10:59:25;7.32;;;6.00;;
11743;SDS011;5929;51.906;7.674;2023-04-01T11:11:56;6.40;;;4.32;;
11743;SDS011;5929;51.906;7.674;2023-04-01T11:14:50;6.68;;;5.00;;
11743;SDS011;5929;51.906;7.674;2023-04-01T11:24:11;10.60;;;9.05;;
11743;SDS011;5929;51.906;7.674;2023-04-01T11:26:52;9.38;;;7.45;;
11743;SDS011;5929;51.906;7.674;2023-04-01T11:32:27;10.30;;;8.95;;
11743;SDS011;5929;51.906;7.674;2023-04-01T11:35:22;11.10;;;8.80;;
11743;SDS011;5929;51.906;7.674;2023-04-01T11:38:00;10.45;;;8.30;;
11743;SDS011;5929;51.906;7.674;2023-04-01T11:40:39;10.73;;;8.13;;
11743;SDS011;5929;51.906;7.674;2023-04-01T11:43:11;10.85;;;8.10;;
11743;SDS011;5929;51.906;7.674;2023-04-01T11:45:48;10.65;;;8.30;;
11743;SDS011;5929;51.906;7.674;2023-04-01T11:51:22;10.15;;;8.30;;
11743;SDS011;5929;51.906;7.674;2023-04-01T11:54:06;10.57;;;9.27;;
11743;SDS011;5929;51.906;7.674;2023-04-01T11:56:56;10.18;;;9.07;;
11743;SDS011;5929;51.906;7.674;2023-04-01T11:59:41;11.02;;;9.30;;
11743;SDS011;5929;51.906;7.674;2023-04-01T12:02:23;11.18;;;8.55;;
11743;SDS011;5929;51.906;7.674;2023-04-01T12:08:02;10.70;;;8.00;;
11743;SDS011;5929;51.906;7.674;2023-04-01T12:10:38;10.82;;;7.75;;
11743;SDS011;5929;51.906;7.674;2023-04-01T12:13:14;9.50;;;7.32;;
11743;SDS011;5929;51.906;7.674;2023-04-01T12:15:59;10.18;;;7.78;;
11743;SDS011;5929;51.906;7.674;2023-04-01T12:18:46;9.73;;;7.40;;
11743;SDS011;5929;51.906;7.674;2023-04-01T12:21:22;9.88;;;7.93;;
11743;SDS011;5929;51.906;7.674;2023-04-01T12:23:59;10.70;;;8.48;;
11743;SDS011;5929;51.906;7.674;2023-04-01T12:32:41;14.93;;;9.43;;
11743;SDS011;5929;51.906;7.674;2023-04-01T12:35:24;11.27;;;7.88;;
11743;SDS011;5929;51.906;7.674;2023-04-01T12:38:03;9.60;;;6.10;;
11743;SDS011;5929;51.906;7.674;2023-04-01T12:40:44;9.23;;;6.18;;
11743;SDS011;5929;51.906;7.674;2023-04-01T12:46:22;11.95;;;7.00;;
11743;SDS011;5929;51.906;7.674;2023-04-01T12:49:09;10.82;;;6.40;;
11743;SDS011;5929;51.906;7.674;2023-04-01T12:52:05;10.63;;;7.68;;
11743;SDS011;5929;51.906;7.674;2023-04-01T12:54:48;11.48;;;7.47;;
11743;SDS011;5929;51.906;7.674;2023-04-01T13:00:36;14.40;;;9.00;;
11743;SDS011;5929;51.906;7.674;2023-04-01T13:03:16;17.20;;;10.10;;
11743;SDS011;5929;51.906;7.674;2023-04-01T13:08:57;15.90;;;10.43;;
11743;SDS011;5929;51.906;7.674;2023-04-01T13:11:36;19.05;;;9.75;;
11743;SDS011;5929;51.906;7.674;2023-04-01T13:17:07;14.90;;;10.10;;
11743;SDS011;5929;51.906;7.674;2023-04-01T13:19:44;16.58;;;10.13;;
11743;SDS011;5929;51.906;7.674;2023-04-01T13:22:16;15.50;;;10.48;;
11743;SDS011;5929;51.906;7.674;2023-04-01T13:24:51;15.63;;;9.20;;
11743;SDS011;5929;51.906;7.674;2023-04-01T13:27:27;14.05;;;8.95;;
11743;SDS011;5929;51.906;7.674;2023-04-01T13:30:00;14.43;;;8.75;;
11743;SDS011;5929;51.906;7.674;2023-04-01T13:32:34;13.63;;;8.45;;
11743;SDS011;5929;51.906;7.674;2023-04-01T13:35:16;17.17;;;11.18;;
11743;SDS011;5929;51.906;7.674;2023-04-01T13:37:52;15.27;;;10.23;;
11743;SDS011;5929;51.906;7.674;2023-04-01T13:40:36;12.98;;;8.25;;
11743;SDS011;5929;51.906;7.674;2023-04-01T13:43:12;13.85;;;8.85;;
11743;SDS011;5929;51.906;7.674;2023-04-01T13:45:50;13.95;;;8.65;;
11743;SDS011;5929;51.906;7.674;2023-04-01T13:48:32;13.27;;;7.80;;
11743;SDS011;5929;51.906;7.674;2023-04-01T13:51:41;7.10;;;4.22;;
11743;SDS011;5929;51.906;7.674;2023-04-01T13:54:33;8.95;;;5.60;;
11743;SDS011;5929;51.906;7.674;2023-04-01T13:57:26;7.53;;;4.65;;
11743;SDS011;5929;51.906;7.674;2023-04-01T14:00:19;7.03;;;4.70;;
11743;SDS011;5929;51.906;7.674;2023-04-01T14:03:00;8.18;;;5.00;;
11743;SDS011;5929;51.906;7.674;2023-04-01T14:05:53;7.45;;;5.20;;
11743;SDS011;5929;51.906;7.674;2023-04-01T14:08:41;7.55;;;5.18;;
11743;SDS011;5929;51.906;7.674;2023-04-01T14:11:22;8.10;;;5.22;;
11743;SDS011;5929;51.906;7.674;2023-04-01T14:13:59;10.50;;;6.47;;
11743;SDS011;5929;51.906;7.674;2023-04-01T14:16:47;9.80;;;5.60;;
11743;SDS011;5929;51.906;7.674;2023-04-01T14:19:39;9.48;;;5.22;;
11743;SDS011;5929;51.906;7.674;2023-04-01T14:22:21;9.35;;;5.97;;
11743;SDS011;5929;51.906;7.674;2023-04-01T14:25:16;9.05;;;5.95;;
11743;SDS011;5929;51.906;7.674;2023-04-01T14:28:00;10.60;;;5.57;;
11743;SDS011;5929;51.906;7.674;2023-04-01T14:30:40;9.80;;;6.03;;
11743;SDS011;5929;51.906;7.674;2023-04-01T14:33:23;8.50;;;5.13;;
11743;SDS011;5929;51.906;7.674;2023-04-01T14:39:00;7.45;;;3.90;;
11743;SDS011;5929;51.906;7.674;2023-04-01T14:41:44;6.18;;;3.08;;
11743;SDS011;5929;51.906;7.674;2023-04-01T14:44:17;4.80;;;2.42;;
11743;SDS011;5929;51.906;7.674;2023-04-01T14:47:01;8.38;;;3.80;;
11743;SDS011;5929;51.906;7.674;2023-04-01T14:49:46;8.73;;;5.47;;
11743;SDS011;5929;51.906;7.674;2023-04-01T14:52:15;8.52;;;4.97;;
11743;SDS011;5929;51.906;7.674;2023-04-01T14:54:48;11.60;;;4.97;;
11743;SDS011;5929;51.906;7.674;2023-04-01T14:57:22;9.52;;;5.43;;
11743;SDS011;5929;51.906;7.674;2023-04-01T14:59:51;9.15;;;5.03;;
11743;SDS011;5929;51.906;7.674;2023-04-01T15:05:26;7.18;;;3.83;;
11743;SDS011;5929;51.906;7.674;2023-04-01T15:08:03;8.45;;;4.60;;
11743;SDS011;5929;51.906;7.674;2023-04-01T15:10:42;6.57;;;3.08;;
11743;SDS011;5929;51.906;7.674;2023-04-01T15:13:34;6.88;;;3.85;;
11743;SDS011;5929;51.906;7.674;2023-04-01T15:16:30;6.70;;;3.78;;
11743;SDS011;5929;51.906;7.674;2023-04-01T15:19:04;6.50;;;3.80;;
11743;SDS011;5929;51.906;7.674;2023-04-01T15:24:59;7.05;;;3.22;;
11743;SDS011;5929;51.906;7.674;2023-04-01T15:27:40;8.50;;;3.67;;
11743;SDS011;5929;51.906;7.674;2023-04-01T15:30:23;6.57;;;3.60;;
11743;SDS011;5929;51.906;7.674;2023-04-01T15:33:01;6.00;;;3.60;;
11743;SDS011;5929;51.906;7.674;2023-04-01T15:35:44;7.53;;;3.78;;
11743;SDS011;5929;51.906;7.674;2023-04-01T15:38:19;9.15;;;4.50;;
11743;SDS011;5929;51.906;7.674;2023-04-01T15:40:55;9.30;;;5.10;;
11743;SDS011;5929;51.906;7.674;2023-04-01T15:43:31;7.78;;;5.25;;
11743;SDS011;5929;51.906;7.674;2023-04-01T15:46:14;11.45;;;7.15;;
11743;SDS011;5929;51.906;7.674;2023-04-01T15:48:56;10.27;;;6.82;;
11743;SDS011;5929;51.906;7.674;2023-04-01T15:51:36;9.85;;;7.00;;
11743;SDS011;5929;51.906;7.674;2023-04-01T15:54:21;11.75;;;6.95;;
11743;SDS011;5929;51.906;7.674;2023-04-01T15:57:08;10.38;;;5.97;;
11743;SDS011;5929;51.906;7.674;2023-04-01T15:59:53;8.90;;;5.80;;
11743;SDS011;5929;51.906;7.674;2023-04-01T16:02:46;7.55;;;4.93;;
11743;SDS011;5929;51.906;7.674;2023-04-01T16:08:09;10.32;;;5.93;;
11743;SDS011;5929;51.906;7.674;2023-04-01T16:10:52;8.60;;;4.93;;
11743;SDS011;5929;51.906;7.674;2023-04-01T16:13:40;8.45;;;5.45;;
11743;SDS011;5929;51.906;7.674;2023-04-01T16:16:18;7.88;;;5.22;;
11743;SDS011;5929;51.906;7.674;2023-04-01T16:19:03;10.52;;;5.53;;
11743;SDS011;5929;51.906;7.674;2023-04-01T16:21:42;10.15;;;6.05;;
11743;SDS011;5929;51.906;7.674;2023-04-01T16:24:17;9.48;;;5.60;;
11743;SDS011;5929;51.906;7.674;2023-04-01T16:26:52;9.27;;;5.95;;
11743;SDS011;5929;51.906;7.674;2023-04-01T16:29:25;8.35;;;5.25;;
11743;SDS011;5929;51.906;7.674;2023-04-01T16:32:02;7.65;;;5.18;;
11743;SDS011;5929;51.906;7.674;2023-04-01T16:34:43;8.20;;;5.32;;
11743;SDS011;5929;51.906;7.674;2023-04-01T16:37:17;8.05;;;5.10;;
11743;SDS011;5929;51.906;7.674;2023-04-01T16:39:48;8.93;;;5.25;;
11743;SDS011;5929;51.906;7.674;2023-04-01T16:42:24;10.05;;;5.93;;
11743;SDS011;5929;51.906;7.674;2023-04-01T16:45:00;11.10;;;7.38;;
11743;SDS011;5929;51.906;7.674;2023-04-01T16:47:45;11.18;;;7.55;;
11743;SDS011;5929;51.906;7.674;2023-04-01T16:50:17;13.95;;;9.00;;
11743;SDS011;5929;51.906;7.674;2023-04-01T16:52:53;13.20;;;9.55;;
11743;SDS011;5929;51.906;7.674;2023-04-01T16:55:33;12.70;;;9.02;;
11743;SDS011;5929;51.906;7.674;2023-04-01T16:58:07;13.55;;;9.65;;
11743;SDS011;5929;51.906;7.674;2023-04-01T17:00:40;12.68;;;8.25;;
11743;SDS011;5929;51.906;7.674;2023-04-01T17:03:15;10.25;;;6.65;;
11743;SDS011;5929;51.906;7.674;2023-04-01T17:05:52;8.88;;;6.53;;
11743;SDS011;5929;51.906;7.674;2023-04-01T17:08:35;7.78;;;5.85;;
11743;SDS011;5929;51.906;7.674;2023-04-01T17:11:16;8.35;;;5.80;;
11743;SDS011;5929;51.906;7.674;2023-04-01T17:13:50;8.02;;;5.40;;
11743;SDS011;5929;51.906;7.674;2023-04-01T17:16:43;7.13;;;4.70;;
11743;SDS011;5929;51.906;7.674;2023-04-01T17:19:26;6.32;;;4.07;;
11743;SDS011;5929;51.906;7.674;2023-04-01T17:22:13;6.85;;;4.18;;